sensor_id;sensor_type;location;lat;lon;timestamp;temperature;humidity
48604;DHT22;32708;51.212;6.788;2023-04-25T00:00:19;8.50;99.90
48604;DHT22;32708;51.212;6.788;2023-04-25T00:02:46;8.50;99.90
48604;DHT22;32708;51.212;6.788;2023-04-25T00:05:12;8.50;99.90
48604;DHT22;32708;51.212;6.788;2023-04-25T00:07:40;8.40;99.90
48604;DHT22;32708;51.212;6.788;2023-04-25T00:10:09;8.30;99.90
48604;DHT22;32708;51.212;6.788;2023-04-25T00:12:36;8.40;99.90
48604;DHT22;32708;51.212;6.788;2023-04-25T00:15:05;8.40;99.90
48604;DHT22;32708;51.212;6.788;2023-04-25T00:17:31;8.40;99.90
48604;DHT22;32708;51.212;6.788;2023-04-25T00:19:58;8.60;99.90
48604;DHT22;32708;51.212;6.788;2023-04-25T00:22:24;8.50;99.90
48604;DHT22;32708;51.212;6.788;2023-04-25T00:24:50;8.50;99.90
48604;DHT22;32708;51.212;6.788;2023-04-25T00:27:16;8.50;99.90
48604;DHT22;32708;51.212;6.788;2023-04-25T00:29:42;8.90;99.90
48604;DHT22;32708;51.212;6.788;2023-04-25T00:32:08;8.40;99.90
48604;DHT22;32708;51.212;6.788;2023-04-25T00:34:35;9.00;99.90
48604;DHT22;32708;51.212;6.788;2023-04-25T00:37:01;8.50;99.90
48604;DHT22;32708;51.212;6.788;2023-04-25T00:39:28;8.60;99.90
48604;DHT22;32708;51.212;6.788;2023-04-25T00:41:54;8.50;99.90
48604;DHT22;32708;51.212;6.788;2023-04-25T00:44:21;8.70;99.90
48604;DHT22;32708;51.212;6.788;2023-04-25T00:46:48;9.00;99.90
48604;DHT22;32708;51.212;6.788;2023-04-25T00:49:17;8.60;99.90
48604;DHT22;32708;51.212;6.788;2023-04-25T00:51:43;8.60;99.90
48604;DHT22;32708;51.212;6.788;2023-04-25T00:54:12;9.10;99.90
48604;DHT22;32708;51.212;6.788;2023-04-25T00:56:40;8.60;99.90
48604;DHT22;32708;51.212;6.788;2023-04-25T00:59:07;8.70;99.90
48604;DHT22;32708;51.212;6.788;2023-04-25T01:01:35;8.70;99.90
48604;DHT22;32708;51.212;6.788;2023-04-25T01:04:03;8.60;99.90
48604;DHT22;32708;51.212;6.788;2023-04-25T01:06:29;8.40;99.90
48604;DHT22;32708;51.212;6.788;2023-04-25T01:08:56;8.50;99.90
48604;DHT22;32708;51.212;6.788;2023-04-25T01:11:23;8.50;99.90
48604;DHT22;32708;51.212;6.788;2023-04-25T01:13:49;8.40;99.90
48604;DHT22;32708;51.212;6.788;2023-04-25T01:16:25;8.50;99.90
48604;DHT22;32708;51.212;6.788;2023-04-25T01:18:51;8.60;99.90
48604;DHT22;32708;51.212;6.788;2023-04-25T01:21:17;8.50;99.90
48604;DHT22;32708;51.212;6.788;2023-04-25T01:23:45;8.50;99.90
48604;DHT22;32708;51.212;6.788;2023-04-25T01:26:12;8.60;99.90
48604;DHT22;32708;51.212;6.788;2023-04-25T01:28:40;8.70;99.90
48604;DHT22;32708;51.212;6.788;2023-04-25T01:31:07;8.70;99.90
48604;DHT22;32708;51.212;6.788;2023-04-25T01:33:34;8.80;99.90
48604;DHT22;32708;51.212;6.788;2023-04-25T01:36:01;8.70;99.90
48604;DHT22;32708;51.212;6.788;2023-04-25T01:38:27;8.50;99.90
48604;DHT22;32708;51.212;6.788;2023-04-25T01:40:54;8.40;99.90
48604;DHT22;32708;51.212;6.788;2023-04-25T01:43:21;8.20;99.90
48604;DHT22;32708;51.212;6.788;2023-04-25T01:45:49;8.20;99.90
48604;DHT22;32708;51.212;6.788;2023-04-25T01:48:16;8.30;99.90
48604;DHT22;32708;51.212;6.788;2023-04-25T01:50:44;8.30;99.90
48604;DHT22;32708;51.212;6.788;2023-04-25T01:53:13;8.30;99.90
48604;DHT22;32708;51.212;6.788;2023-04-25T01:55:42;8.30;99.90
48604;DHT22;32708;51.212;6.788;2023-04-25T01:58:11;8.40;99.90
48604;DHT22;32708;51.212;6.788;2023-04-25T02:01:02;8.30;99.90
48604;DHT22;32708;51.212;6.788;2023-04-25T02:03:34;8.10;99.90
48604;DHT22;32708;51.212;6.788;2023-04-25T02:06:05;8.20;99.90
48604;DHT22;32708;51.212;6.788;2023-04-25T02:08:34;8.20;99.90
48604;DHT22;32708;51.212;6.788;2023-04-25T02:11:00;8.10;99.90
48604;DHT22;32708;51.212;6.788;2023-04-25T02:13:33;8.20;99.90
48604;DHT22;32708;51.212;6.788;2023-04-25T02:16:31;8.10;99.90
48604;DHT22;32708;51.212;6.788;2023-04-25T02:18:59;8.00;99.90
48604;DHT22;32708;51.212;6.788;2023-04-25T02:21:25;8.50;99.90
48604;DHT22;32708;51.212;6.788;2023-04-25T02:23:52;8.30;99.90
48604;DHT22;32708;51.212;6.788;2023-04-25T02:26:18;8.40;99.90
48604;DHT22;32708;51.212;6.788;2023-04-25T02:28:44;8.60;99.90
48604;DHT22;32708;51.212;6.788;2023-04-25T02:31:10;8.30;99.90
48604;DHT22;32708;51.212;6.788;2023-04-25T02:33:37;8.50;99.90
48604;DHT22;32708;51.212;6.788;2023-04-25T02:36:05;8.30;99.90
48604;DHT22;32708;51.212;6.788;2023-04-25T02:38:31;8.30;99.90
48604;DHT22;32708;51.212;6.788;2023-04-25T02:40:57;8.40;99.90
48604;DHT22;32708;51.212;6.788;2023-04-25T02:43:25;8.30;99.90
48604;DHT22;32708;51.212;6.788;2023-04-25T02:45:52;8.40;99.90
48604;DHT22;32708;51.212;6.788;2023-04-25T02:48:18;8.30;99.90
48604;DHT22;32708;51.212;6.788;2023-04-25T02:50:44;8.20;99.90
48604;DHT22;32708;51.212;6.788;2023-04-25T02:53:11;8.20;99.90
48604;DHT22;32708;51.212;6.788;2023-04-25T02:55:44;8.10;99.90
48604;DHT22;32708;51.212;6.788;2023-04-25T02:58:10;8.10;99.90
48604;DHT22;32708;51.212;6.788;2023-04-25T03:01:00;8.20;99.90
48604;DHT22;32708;51.212;6.788;2023-04-25T03:03:27;8.10;99.90
48604;DHT22;32708;51.212;6.788;2023-04-25T03:05:55;8.20;99.90
48604;DHT22;32708;51.212;6.788;2023-04-25T03:08:28;8.20;99.90
48604;DHT22;32708;51.212;6.788;2023-04-25T03:11:00;8.30;99.90
48604;DHT22;32708;51.212;6.788;2023-04-25T03:13:27;8.30;99.90
48604;DHT22;32708;51.212;6.788;2023-04-25T03:15:56;8.30;99.90
48604;DHT22;32708;51.212;6.788;2023-04-25T03:18:23;8.30;99.90
48604;DHT22;32708;51.212;6.788;2023-04-25T03:20:49;8.10;99.90
48604;DHT22;32708;51.212;6.788;2023-04-25T03:23:15;8.00;99.90
48604;DHT22;32708;51.212;6.788;2023-04-25T03:25:42;8.00;99.90
48604;DHT22;32708;51.212;6.788;2023-04-25T03:28:08;8.10;99.90
48604;DHT22;32708;51.212;6.788;2023-04-25T03:30:35;8.30;99.90
48604;DHT22;32708;51.212;6.788;2023-04-25T03:33:01;8.10;99.90
48604;DHT22;32708;51.212;6.788;2023-04-25T03:35:28;8.10;99.90
48604;DHT22;32708;51.212;6.788;2023-04-25T03:37:54;8.20;99.90
48604;DHT22;32708;51.212;6.788;2023-04-25T03:40:26;8.10;99.90
48604;DHT22;32708;51.212;6.788;2023-04-25T03:43:18;8.20;99.90
48604;DHT22;32708;51.212;6.788;2023-04-25T03:45:51;8.10;99.90
48604;DHT22;32708;51.212;6.788;2023-04-25T03:48:20;8.10;99.90
48604;DHT22;32708;51.212;6.788;2023-04-25T03:50:53;8.00;99.90
48604;DHT22;32708;51.212;6.788;2023-04-25T03:53:20;8.00;99.90
48604;DHT22;32708;51.212;6.788;2023-04-25T03:56:07;8.10;99.90
48604;DHT22;32708;51.212;6.788;2023-04-25T03:58:35;8.00;99.90
48604;DHT22;32708;51.212;6.788;2023-04-25T04:01:01;8.00;99.90
48604;DHT22;32708;51.212;6.788;2023-04-25T04:03:34;8.00;99.90
48604;DHT22;32708;51.212;6.788;2023-04-25T04:06:05;7.90;99.90
48604;DHT22;32708;51.212;6.788;2023-04-25T04:08:35;7.90;99.90
48604;DHT22;32708;51.212;6.788;2023-04-25T04:11:02;8.00;99.90
48604;DHT22;32708;51.212;6.788;2023-04-25T04:13:29;7.80;99.90
48604;DHT22;32708;51.212;6.788;2023-04-25T04:15:56;7.80;99.90
48604;DHT22;32708;51.212;6.788;2023-04-25T04:18:23;7.80;99.90
48604;DHT22;32708;51.212;6.788;2023-04-25T04:20:49;7.80;99.90
48604;DHT22;32708;51.212;6.788;2023-04-25T04:23:16;7.80;99.90
48604;DHT22;32708;51.212;6.788;2023-04-25T04:25:43;7.80;99.90
48604;DHT22;32708;51.212;6.788;2023-04-25T04:28:29;7.80;99.90
48604;DHT22;32708;51.212;6.788;2023-04-25T04:31:04;7.70;99.90
48604;DHT22;32708;51.212;6.788;2023-04-25T04:33:31;7.80;99.90
48604;DHT22;32708;51.212;6.788;2023-04-25T04:36:00;7.80;99.90
48604;DHT22;32708;51.212;6.788;2023-04-25T04:38:29;7.90;99.90
48604;DHT22;32708;51.212;6.788;2023-04-25T04:41:00;8.20;99.90
48604;DHT22;32708;51.212;6.788;2023-04-25T04:43:40;8.50;99.90
48604;DHT22;32708;51.212;6.788;2023-04-25T04:46:15;8.30;99.90
48604;DHT22;32708;51.212;6.788;2023-04-25T04:49:00;7.80;99.90
48604;DHT22;32708;51.212;6.788;2023-04-25T04:51:50;7.80;99.90
48604;DHT22;32708;51.212;6.788;2023-04-25T04:54:35;8.30;99.90
48604;DHT22;32708;51.212;6.788;2023-04-25T04:57:24;7.80;99.90
48604;DHT22;32708;51.212;6.788;2023-04-25T05:00:11;7.90;99.90
48604;DHT22;32708;51.212;6.788;2023-04-25T05:02:58;8.10;99.90
48604;DHT22;32708;51.212;6.788;2023-04-25T05:05:49;8.30;99.90
48604;DHT22;32708;51.212;6.788;2023-04-25T05:08:34;8.40;99.90
48604;DHT22;32708;51.212;6.788;2023-04-25T05:11:19;8.40;99.90
48604;DHT22;32708;51.212;6.788;2023-04-25T05:13:55;8.30;99.90
48604;DHT22;32708;51.212;6.788;2023-04-25T05:16:40;8.50;99.90
48604;DHT22;32708;51.212;6.788;2023-04-25T05:19:25;9.00;99.90
48604;DHT22;32708;51.212;6.788;2023-04-25T05:22:09;8.50;99.90
48604;DHT22;32708;51.212;6.788;2023-04-25T05:24:52;8.70;99.90
48604;DHT22;32708;51.212;6.788;2023-04-25T05:27:41;8.70;99.90
48604;DHT22;32708;51.212;6.788;2023-04-25T05:30:19;8.70;99.90
48604;DHT22;32708;51.212;6.788;2023-04-25T05:32:58;8.60;99.90
48604;DHT22;32708;51.212;6.788;2023-04-25T05:35:24;8.70;99.90
48604;DHT22;32708;51.212;6.788;2023-04-25T05:37:51;8.70;99.90
48604;DHT22;32708;51.212;6.788;2023-04-25T05:40:18;8.50;99.90
48604;DHT22;32708;51.212;6.788;2023-04-25T05:43:06;8.30;99.90
48604;DHT22;32708;51.212;6.788;2023-04-25T05:45:44;8.10;99.90
48604;DHT22;32708;51.212;6.788;2023-04-25T05:48:30;8.20;99.90
48604;DHT22;32708;51.212;6.788;2023-04-25T05:51:00;8.50;99.90
48604;DHT22;32708;51.212;6.788;2023-04-25T05:53:53;8.60;99.90
48604;DHT22;32708;51.212;6.788;2023-04-25T05:56:19;8.80;99.90
48604;DHT22;32708;51.212;6.788;2023-04-25T05:58:48;9.30;99.90
48604;DHT22;32708;51.212;6.788;2023-04-25T06:01:15;9.60;93.00
48604;DHT22;32708;51.212;6.788;2023-04-25T06:03:43;9.70;88.70
48604;DHT22;32708;51.212;6.788;2023-04-25T06:06:11;10.30;79.40
48604;DHT22;32708;51.212;6.788;2023-04-25T06:08:37;10.40;48.20
48604;DHT22;32708;51.212;6.788;2023-04-25T06:11:04;10.00;61.00
48604;DHT22;32708;51.212;6.788;2023-04-25T06:13:30;10.10;54.90
48604;DHT22;32708;51.212;6.788;2023-04-25T06:15:57;9.80;60.70
48604;DHT22;32708;51.212;6.788;2023-04-25T06:18:23;9.70;64.70
48604;DHT22;32708;51.212;6.788;2023-04-25T06:20:49;9.80;68.20
48604;DHT22;32708;51.212;6.788;2023-04-25T06:23:17;10.20;58.70
48604;DHT22;32708;51.212;6.788;2023-04-25T06:25:53;10.30;22.50
48604;DHT22;32708;51.212;6.788;2023-04-25T06:28:19;10.40;5.70
48604;DHT22;32708;51.212;6.788;2023-04-25T06:30:48;10.40;9.50
48604;DHT22;32708;51.212;6.788;2023-04-25T06:33:17;10.50;6.20
48604;DHT22;32708;51.212;6.788;2023-04-25T06:35:44;10.00;16.00
48604;DHT22;32708;51.212;6.788;2023-04-25T06:38:12;10.00;24.30
48604;DHT22;32708;51.212;6.788;2023-04-25T06:40:40;10.00;27.00
48604;DHT22;32708;51.212;6.788;2023-04-25T06:43:08;10.00;19.50
48604;DHT22;32708;51.212;6.788;2023-04-25T06:45:49;10.00;38.40
48604;DHT22;32708;51.212;6.788;2023-04-25T06:48:16;10.00;33.60
48604;DHT22;32708;51.212;6.788;2023-04-25T06:50:42;10.10;19.20
48604;DHT22;32708;51.212;6.788;2023-04-25T06:53:08;10.30;2.00
48604;DHT22;32708;51.212;6.788;2023-04-25T06:55:35;10.70;1.00
48604;DHT22;32708;51.212;6.788;2023-04-25T06:58:18;11.40;1.00
48604;DHT22;32708;51.212;6.788;2023-04-25T07:01:07;11.70;99.90
48604;DHT22;32708;51.212;6.788;2023-04-25T07:03:33;11.80;99.90
48604;DHT22;32708;51.212;6.788;2023-04-25T07:06:05;11.80;99.90
48604;DHT22;32708;51.212;6.788;2023-04-25T07:08:32;11.40;99.90
48604;DHT22;32708;51.212;6.788;2023-04-25T07:10:58;11.60;99.90
48604;DHT22;32708;51.212;6.788;2023-04-25T07:13:25;11.30;99.90
48604;DHT22;32708;51.212;6.788;2023-04-25T07:15:51;11.60;1.00
48604;DHT22;32708;51.212;6.788;2023-04-25T07:18:19;12.10;99.90
48604;DHT22;32708;51.212;6.788;2023-04-25T07:20:46;11.90;99.90
48604;DHT22;32708;51.212;6.788;2023-04-25T07:23:12;11.80;99.90
48604;DHT22;32708;51.212;6.788;2023-04-25T07:25:39;12.20;99.90
48604;DHT22;32708;51.212;6.788;2023-04-25T07:28:06;12.40;99.90
48604;DHT22;32708;51.212;6.788;2023-04-25T07:30:32;12.70;99.90
48604;DHT22;32708;51.212;6.788;2023-04-25T07:33:03;12.70;1.00
48604;DHT22;32708;51.212;6.788;2023-04-25T07:35:30;12.80;99.90
48604;DHT22;32708;51.212;6.788;2023-04-25T07:37:56;12.30;99.90
48604;DHT22;32708;51.212;6.788;2023-04-25T07:40:23;11.90;99.90
48604;DHT22;32708;51.212;6.788;2023-04-25T07:42:54;11.20;99.90
48604;DHT22;32708;51.212;6.788;2023-04-25T07:45:27;11.00;1.00
48604;DHT22;32708;51.212;6.788;2023-04-25T07:47:54;10.40;1.00
48604;DHT22;32708;51.212;6.788;2023-04-25T07:50:21;10.40;1.00
48604;DHT22;32708;51.212;6.788;2023-04-25T07:52:47;10.80;1.00
48604;DHT22;32708;51.212;6.788;2023-04-25T07:55:23;10.60;1.00
48604;DHT22;32708;51.212;6.788;2023-04-25T07:58:18;10.60;1.00
48604;DHT22;32708;51.212;6.788;2023-04-25T08:00:50;10.40;1.00
48604;DHT22;32708;51.212;6.788;2023-04-25T08:03:37;10.40;1.00
48604;DHT22;32708;51.212;6.788;2023-04-25T08:06:07;10.60;1.00
48604;DHT22;32708;51.212;6.788;2023-04-25T08:08:45;10.50;1.00
48604;DHT22;32708;51.212;6.788;2023-04-25T08:11:16;10.90;99.90
48604;DHT22;32708;51.212;6.788;2023-04-25T08:13:42;11.00;99.90
48604;DHT22;32708;51.212;6.788;2023-04-25T08:16:08;11.80;52.20
48604;DHT22;32708;51.212;6.788;2023-04-25T08:18:35;12.70;99.90
48604;DHT22;32708;51.212;6.788;2023-04-25T08:21:01;13.00;98.00
48604;DHT22;32708;51.212;6.788;2023-04-25T08:23:27;12.70;99.90
48604;DHT22;32708;51.212;6.788;2023-04-25T08:26:02;12.30;99.90
48604;DHT22;32708;51.212;6.788;2023-04-25T08:28:34;11.60;99.90
48604;DHT22;32708;51.212;6.788;2023-04-25T08:31:01;11.60;99.90
48604;DHT22;32708;51.212;6.788;2023-04-25T08:33:33;11.70;99.90
48604;DHT22;32708;51.212;6.788;2023-04-25T08:36:08;12.30;1.00
48604;DHT22;32708;51.212;6.788;2023-04-25T08:38:34;12.70;99.90
48604;DHT22;32708;51.212;6.788;2023-04-25T08:41:02;11.80;99.90
48604;DHT22;32708;51.212;6.788;2023-04-25T08:43:29;11.90;99.90
48604;DHT22;32708;51.212;6.788;2023-04-25T08:46:00;11.70;99.90
48604;DHT22;32708;51.212;6.788;2023-04-25T08:48:35;12.40;99.90
48604;DHT22;32708;51.212;6.788;2023-04-25T08:51:07;13.20;99.90
48604;DHT22;32708;51.212;6.788;2023-04-25T08:53:34;13.70;1.00
48604;DHT22;32708;51.212;6.788;2023-04-25T08:56:03;13.90;99.90
48604;DHT22;32708;51.212;6.788;2023-04-25T08:58:35;14.00;89.20
48604;DHT22;32708;51.212;6.788;2023-04-25T09:01:03;13.50;99.90
48604;DHT22;32708;51.212;6.788;2023-04-25T09:03:35;13.30;32.70
48604;DHT22;32708;51.212;6.788;2023-04-25T09:06:03;13.20;1.00
48604;DHT22;32708;51.212;6.788;2023-04-25T09:08:29;13.40;1.00
48604;DHT22;32708;51.212;6.788;2023-04-25T09:10:56;13.50;1.00
48604;DHT22;32708;51.212;6.788;2023-04-25T09:13:27;13.70;99.90
48604;DHT22;32708;51.212;6.788;2023-04-25T09:16:14;13.40;99.90
48604;DHT22;32708;51.212;6.788;2023-04-25T09:18:58;12.40;99.90
48604;DHT22;32708;51.212;6.788;2023-04-25T09:21:25;12.10;1.00
48604;DHT22;32708;51.212;6.788;2023-04-25T09:23:51;11.90;99.90
48604;DHT22;32708;51.212;6.788;2023-04-25T09:26:20;11.70;12.00
48604;DHT22;32708;51.212;6.788;2023-04-25T09:28:48;11.70;99.90
48604;DHT22;32708;51.212;6.788;2023-04-25T09:31:23;11.70;99.90
48604;DHT22;32708;51.212;6.788;2023-04-25T09:33:59;11.80;99.90
48604;DHT22;32708;51.212;6.788;2023-04-25T09:36:36;11.60;99.90
48604;DHT22;32708;51.212;6.788;2023-04-25T09:39:23;11.90;1.00
48604;DHT22;32708;51.212;6.788;2023-04-25T09:42:03;12.50;99.90
48604;DHT22;32708;51.212;6.788;2023-04-25T09:44:31;12.70;99.90
48604;DHT22;32708;51.212;6.788;2023-04-25T09:46:57;12.60;1.00
48604;DHT22;32708;51.212;6.788;2023-04-25T09:49:27;12.60;1.00
48604;DHT22;32708;51.212;6.788;2023-04-25T09:52:14;12.20;99.90
48604;DHT22;32708;51.212;6.788;2023-04-25T09:55:08;11.90;99.90
48604;DHT22;32708;51.212;6.788;2023-04-25T09:57:35;11.70;99.90
48604;DHT22;32708;51.212;6.788;2023-04-25T10:00:07;11.70;1.00
48604;DHT22;32708;51.212;6.788;2023-04-25T10:02:42;12.00;1.00
48604;DHT22;32708;51.212;6.788;2023-04-25T10:05:32;12.20;1.00
48604;DHT22;32708;51.212;6.788;2023-04-25T10:08:03;12.70;99.90
48604;DHT22;32708;51.212;6.788;2023-04-25T10:10:31;13.10;99.90
48604;DHT22;32708;51.212;6.788;2023-04-25T10:13:05;13.00;99.90
48604;DHT22;32708;51.212;6.788;2023-04-25T10:15:35;12.70;99.90
48604;DHT22;32708;51.212;6.788;2023-04-25T10:18:05;12.50;99.90
48604;DHT22;32708;51.212;6.788;2023-04-25T10:20:33;12.40;99.90
48604;DHT22;32708;51.212;6.788;2023-04-25T10:23:13;12.20;99.90
48604;DHT22;32708;51.212;6.788;2023-04-25T10:25:41;12.10;99.90
48604;DHT22;32708;51.212;6.788;2023-04-25T10:28:08;11.90;1.00
48604;DHT22;32708;51.212;6.788;2023-04-25T10:30:35;12.00;1.00
48604;DHT22;32708;51.212;6.788;2023-04-25T10:33:01;11.80;1.00
48604;DHT22;32708;51.212;6.788;2023-04-25T10:35:29;11.70;99.90
48604;DHT22;32708;51.212;6.788;2023-04-25T10:38:09;11.40;99.90
48604;DHT22;32708;51.212;6.788;2023-04-25T10:40:36;11.60;99.90
48604;DHT22;32708;51.212;6.788;2023-04-25T10:46:24;11.30;99.90
48604;DHT22;32708;51.212;6.788;2023-04-25T10:48:54;11.40;32.10
48604;DHT22;32708;51.212;6.788;2023-04-25T10:51:22;11.60;1.00
48604;DHT22;32708;51.212;6.788;2023-04-25T10:56:29;12.00;1.00
48604;DHT22;32708;51.212;6.788;2023-04-25T11:01:51;12.40;99.90
48604;DHT22;32708;51.212;6.788;2023-04-25T11:04:32;12.80;1.00
48604;DHT22;32708;51.212;6.788;2023-04-25T11:09:35;14.30;99.90
48604;DHT22;32708;51.212;6.788;2023-04-25T11:12:04;14.20;99.90
48604;DHT22;32708;51.212;6.788;2023-04-25T11:14:32;14.30;99.90
48604;DHT22;32708;51.212;6.788;2023-04-25T11:16:59;14.30;99.90
48604;DHT22;32708;51.212;6.788;2023-04-25T11:19:28;14.80;99.90
48604;DHT22;32708;51.212;6.788;2023-04-25T11:21:56;14.60;99.90
48604;DHT22;32708;51.212;6.788;2023-04-25T11:24:34;14.40;99.90
48604;DHT22;32708;51.212;6.788;2023-04-25T11:27:02;14.40;99.90
48604;DHT22;32708;51.212;6.788;2023-04-25T11:29:31;14.20;99.90
48604;DHT22;32708;51.212;6.788;2023-04-25T11:31:59;14.00;99.90
48604;DHT22;32708;51.212;6.788;2023-04-25T11:34:28;13.40;99.90
48604;DHT22;32708;51.212;6.788;2023-04-25T11:37:02;13.50;99.90
48604;DHT22;32708;51.212;6.788;2023-04-25T11:39:31;13.20;99.90
48604;DHT22;32708;51.212;6.788;2023-04-25T11:41:57;13.30;99.90
48604;DHT22;32708;51.212;6.788;2023-04-25T11:44:24;13.00;99.90
48604;DHT22;32708;51.212;6.788;2023-04-25T11:46:51;12.90;99.90
48604;DHT22;32708;51.212;6.788;2023-04-25T11:49:17;12.60;99.90
48604;DHT22;32708;51.212;6.788;2023-04-25T11:51:46;13.50;99.90
48604;DHT22;32708;51.212;6.788;2023-04-25T11:54:14;13.90;99.90
48604;DHT22;32708;51.212;6.788;2023-04-25T11:56:45;14.30;99.90
48604;DHT22;32708;51.212;6.788;2023-04-25T11:59:12;14.80;99.90
48604;DHT22;32708;51.212;6.788;2023-04-25T12:01:41;14.20;99.90
48604;DHT22;32708;51.212;6.788;2023-04-25T12:04:24;14.30;99.90
48604;DHT22;32708;51.212;6.788;2023-04-25T12:06:52;14.30;99.90
48604;DHT22;32708;51.212;6.788;2023-04-25T12:09:29;13.90;99.90
48604;DHT22;32708;51.212;6.788;2023-04-25T12:11:58;13.80;1.00
48604;DHT22;32708;51.212;6.788;2023-04-25T12:14:30;13.90;1.00
48604;DHT22;32708;51.212;6.788;2023-04-25T12:17:00;13.50;1.00
48604;DHT22;32708;51.212;6.788;2023-04-25T12:19:34;13.10;1.00
48604;DHT22;32708;51.212;6.788;2023-04-25T12:22:03;12.40;1.00
48604;DHT22;32708;51.212;6.788;2023-04-25T12:24:45;12.20;99.90
48604;DHT22;32708;51.212;6.788;2023-04-25T12:27:15;12.00;99.90
48604;DHT22;32708;51.212;6.788;2023-04-25T12:29:52;11.90;1.00
48604;DHT22;32708;51.212;6.788;2023-04-25T12:32:22;11.60;99.90
48604;DHT22;32708;51.212;6.788;2023-04-25T12:34:49;11.20;99.90
48604;DHT22;32708;51.212;6.788;2023-04-25T12:37:15;11.20;5.00
48604;DHT22;32708;51.212;6.788;2023-04-25T12:39:41;11.30;99.90
48604;DHT22;32708;51.212;6.788;2023-04-25T12:42:08;11.20;95.50
48604;DHT22;32708;51.212;6.788;2023-04-25T12:44:37;11.30;99.90
48604;DHT22;32708;51.212;6.788;2023-04-25T12:47:04;11.30;99.90
48604;DHT22;32708;51.212;6.788;2023-04-25T12:49:31;11.30;99.90
48604;DHT22;32708;51.212;6.788;2023-04-25T12:51:57;11.70;99.90
48604;DHT22;32708;51.212;6.788;2023-04-25T12:54:23;12.10;99.90
48604;DHT22;32708;51.212;6.788;2023-04-25T12:56:51;12.10;99.90
48604;DHT22;32708;51.212;6.788;2023-04-25T12:59:18;13.00;99.90
48604;DHT22;32708;51.212;6.788;2023-04-25T13:01:46;13.70;88.70
48604;DHT22;32708;51.212;6.788;2023-04-25T13:04:12;14.10;99.90
48604;DHT22;32708;51.212;6.788;2023-04-25T13:06:42;13.50;99.90
48604;DHT22;32708;51.212;6.788;2023-04-25T13:09:08;13.30;99.90
48604;DHT22;32708;51.212;6.788;2023-04-25T13:11:35;13.30;99.90
48604;DHT22;32708;51.212;6.788;2023-04-25T13:14:04;13.10;37.00
48604;DHT22;32708;51.212;6.788;2023-04-25T13:16:31;12.80;13.50
48604;DHT22;32708;51.212;6.788;2023-04-25T13:18:58;12.70;99.90
48604;DHT22;32708;51.212;6.788;2023-04-25T13:21:25;12.20;99.90
48604;DHT22;32708;51.212;6.788;2023-04-25T13:23:51;12.10;99.90
48604;DHT22;32708;51.212;6.788;2023-04-25T13:26:18;11.90;99.90
48604;DHT22;32708;51.212;6.788;2023-04-25T13:28:44;11.60;1.00
48604;DHT22;32708;51.212;6.788;2023-04-25T13:31:11;11.40;99.90
48604;DHT22;32708;51.212;6.788;2023-04-25T13:33:37;11.50;1.00
48604;DHT22;32708;51.212;6.788;2023-04-25T13:36:04;11.60;99.90
48604;DHT22;32708;51.212;6.788;2023-04-25T13:38:31;11.70;95.70
48604;DHT22;32708;51.212;6.788;2023-04-25T13:40:57;11.70;99.90
48604;DHT22;32708;51.212;6.788;2023-04-25T13:43:24;11.80;95.10
48604;DHT22;32708;51.212;6.788;2023-04-25T13:45:51;12.20;99.90
48604;DHT22;32708;51.212;6.788;2023-04-25T13:48:18;11.80;99.90
48604;DHT22;32708;51.212;6.788;2023-04-25T13:50:45;11.80;1.00
48604;DHT22;32708;51.212;6.788;2023-04-25T13:53:12;11.50;99.90
48604;DHT22;32708;51.212;6.788;2023-04-25T13:55:38;11.90;99.90
48604;DHT22;32708;51.212;6.788;2023-04-25T13:58:05;12.10;1.00
48604;DHT22;32708;51.212;6.788;2023-04-25T14:00:37;12.00;99.90
48604;DHT22;32708;51.212;6.788;2023-04-25T14:03:04;12.20;99.90
48604;DHT22;32708;51.212;6.788;2023-04-25T14:05:33;12.30;99.90
48604;DHT22;32708;51.212;6.788;2023-04-25T14:08:08;12.40;99.90
48604;DHT22;32708;51.212;6.788;2023-04-25T14:10:37;12.20;99.90
48604;DHT22;32708;51.212;6.788;2023-04-25T14:13:04;12.20;99.90
48604;DHT22;32708;51.212;6.788;2023-04-25T14:15:32;12.20;99.90
48604;DHT22;32708;51.212;6.788;2023-04-25T14:18:00;12.30;99.90
48604;DHT22;32708;51.212;6.788;2023-04-25T14:20:27;12.50;99.90
48604;DHT22;32708;51.212;6.788;2023-04-25T14:22:54;12.60;99.90
48604;DHT22;32708;51.212;6.788;2023-04-25T14:25:22;12.30;99.90
48604;DHT22;32708;51.212;6.788;2023-04-25T14:27:49;12.40;99.90
48604;DHT22;32708;51.212;6.788;2023-04-25T14:30:17;12.30;1.00
48604;DHT22;32708;51.212;6.788;2023-04-25T14:32:44;12.30;56.20
48604;DHT22;32708;51.212;6.788;2023-04-25T14:35:11;12.40;99.90
48604;DHT22;32708;51.212;6.788;2023-04-25T14:37:38;12.40;99.90
48604;DHT22;32708;51.212;6.788;2023-04-25T14:40:05;12.30;17.90
48604;DHT22;32708;51.212;6.788;2023-04-25T14:42:34;12.00;37.10
48604;DHT22;32708;51.212;6.788;2023-04-25T14:45:01;12.00;99.90
48604;DHT22;32708;51.212;6.788;2023-04-25T14:47:33;12.00;94.70
48604;DHT22;32708;51.212;6.788;2023-04-25T14:50:00;12.00;27.10
48604;DHT22;32708;51.212;6.788;2023-04-25T14:52:28;11.70;65.80
48604;DHT22;32708;51.212;6.788;2023-04-25T14:54:54;12.00;1.00
48604;DHT22;32708;51.212;6.788;2023-04-25T14:57:20;12.10;99.90
48604;DHT22;32708;51.212;6.788;2023-04-25T14:59:46;12.40;1.00
48604;DHT22;32708;51.212;6.788;2023-04-25T15:02:13;12.50;99.90
48604;DHT22;32708;51.212;6.788;2023-04-25T15:04:39;12.60;1.00
48604;DHT22;32708;51.212;6.788;2023-04-25T15:07:05;12.30;88.00
48604;DHT22;32708;51.212;6.788;2023-04-25T15:09:31;12.30;1.00
48604;DHT22;32708;51.212;6.788;2023-04-25T15:11:58;12.30;99.90
48604;DHT22;32708;51.212;6.788;2023-04-25T15:14:24;12.20;99.90
48604;DHT22;32708;51.212;6.788;2023-04-25T15:16:50;12.20;99.90
48604;DHT22;32708;51.212;6.788;2023-04-25T15:19:16;12.40;99.90
48604;DHT22;32708;51.212;6.788;2023-04-25T15:21:42;12.40;99.90
48604;DHT22;32708;51.212;6.788;2023-04-25T15:24:09;12.30;99.90
48604;DHT22;32708;51.212;6.788;2023-04-25T15:26:35;12.00;99.90
48604;DHT22;32708;51.212;6.788;2023-04-25T15:29:01;12.00;99.90
48604;DHT22;32708;51.212;6.788;2023-04-25T15:31:29;12.00;99.90
48604;DHT22;32708;51.212;6.788;2023-04-25T15:33:56;12.10;99.90
48604;DHT22;32708;51.212;6.788;2023-04-25T15:36:22;12.00;99.90
48604;DHT22;32708;51.212;6.788;2023-04-25T15:38:48;12.00;99.90
48604;DHT22;32708;51.212;6.788;2023-04-25T15:41:14;12.00;99.90
48604;DHT22;32708;51.212;6.788;2023-04-25T15:43:40;12.50;99.90
48604;DHT22;32708;51.212;6.788;2023-04-25T15:46:07;12.20;99.90
48604;DHT22;32708;51.212;6.788;2023-04-25T15:48:33;12.20;99.90
48604;DHT22;32708;51.212;6.788;2023-04-25T15:50:59;12.20;1.00
48604;DHT22;32708;51.212;6.788;2023-04-25T15:53:25;12.30;1.00
48604;DHT22;32708;51.212;6.788;2023-04-25T15:55:52;12.20;1.00
48604;DHT22;32708;51.212;6.788;2023-04-25T15:58:18;12.10;99.90
48604;DHT22;32708;51.212;6.788;2023-04-25T16:00:44;12.00;99.90
48604;DHT22;32708;51.212;6.788;2023-04-25T16:03:13;12.00;99.90
48604;DHT22;32708;51.212;6.788;2023-04-25T16:05:39;12.30;99.90
48604;DHT22;32708;51.212;6.788;2023-04-25T16:08:06;12.60;99.90